Terminal Aerodrome Forecast
Issued by NWS Buffalo, NY

Home | Current Version | Previous Version | Text Only | Print | Product List | Glossary On
Versions: 1 2 3 4 5 6 7 8 9 10 11 12 13 14 15 16 17 18 19 20 21 22 23 24 25
000
FTUS41 KBUF 251429 AAA
TAFART
TAF AMD
KART 251429Z 2514/2612 15012KT P6SM OVC040
     FM251700 22020G30KT P6SM -RA OVC020
     FM251800 24020G35KT 4SM RA VCTS OVC012CB
     FM252000 22015G25KT P6SM -RA OVC025
     FM252200 23014G23KT P6SM OVC035
     FM260200 25017G29KT P6SM OVC040
     FM260600 26018G30KT P6SM VCSH OVC040=

USA.gov is the U.S. government's official web portal to all federal, state and local government web resources and services.